sensor_id;sensor_type;location;lat;lon;timestamp;pressure;altitude;pressure_sealevel;temperature
75431;BMP280;64127;51.488;5.462;2022-12-07T00:06:34;101626.31;;;8.40
75431;BMP280;64127;51.488;5.462;2022-12-07T00:09:10;101626.31;;;8.40
75431;BMP280;64127;51.488;5.462;2022-12-07T00:11:44;101627.13;;;8.39
75431;BMP280;64127;51.488;5.462;2022-12-07T00:14:17;101618.91;;;8.33
75431;BMP280;64127;51.488;5.462;2022-12-07T00:16:51;101621.72;;;8.36
75431;BMP280;64127;51.488;5.462;2022-12-07T00:19:23;101628.94;;;8.40
75431;BMP280;64127;51.488;5.462;2022-12-07T00:21:55;101615.09;;;8.41
75431;BMP280;64127;51.488;5.462;2022-12-07T00:24:27;101620.31;;;8.41
75431;BMP280;64127;51.488;5.462;2022-12-07T00:26:59;101617.69;;;8.41
75431;BMP280;64127;51.488;5.462;2022-12-07T00:29:31;101616.59;;;8.38
75431;BMP280;64127;51.488;5.462;2022-12-07T00:32:03;101605.84;;;8.33
75431;BMP280;64127;51.488;5.462;2022-12-07T00:34:35;101610.88;;;8.30
75431;BMP280;64127;51.488;5.462;2022-12-07T00:37:07;101597.13;;;8.20
75431;BMP280;64127;51.488;5.462;2022-12-07T00:39:39;101569.88;;;8.01
75431;BMP280;64127;51.488;5.462;2022-12-07T00:42:11;101606.47;;;8.16
75431;BMP280;64127;51.488;5.462;2022-12-07T00:44:43;101601.06;;;8.13
75431;BMP280;64127;51.488;5.462;2022-12-07T00:47:15;101609.50;;;8.09
75431;BMP280;64127;51.488;5.462;2022-12-07T00:49:47;101606.63;;;8.04
75431;BMP280;64127;51.488;5.462;2022-12-07T00:52:19;101598.69;;;8.03
75431;BMP280;64127;51.488;5.462;2022-12-07T00:54:51;101601.47;;;8.06
75431;BMP280;64127;51.488;5.462;2022-12-07T00:57:23;101597.06;;;8.05
75431;BMP280;64127;51.488;5.462;2022-12-07T00:59:55;101601.19;;;8.01
75431;BMP280;64127;51.488;5.462;2022-12-07T01:02:29;101591.66;;;8.02
75431;BMP280;64127;51.488;5.462;2022-12-07T01:21:42;101606.34;;;7.87
75431;BMP280;64127;51.488;5.462;2022-12-07T01:24:14;101586.69;;;7.79
75431;BMP280;64127;51.488;5.462;2022-12-07T01:26:49;101600.22;;;7.86
75431;BMP280;64127;51.488;5.462;2022-12-07T01:29:21;101608.06;;;7.86
75431;BMP280;64127;51.488;5.462;2022-12-07T01:31:53;101601.81;;;7.84
75431;BMP280;64127;51.488;5.462;2022-12-07T01:38:37;101601.41;;;7.78
75431;BMP280;64127;51.488;5.462;2022-12-07T01:41:09;101595.53;;;7.81
75431;BMP280;64127;51.488;5.462;2022-12-07T01:44:25;101604.16;;;7.80
75431;BMP280;64127;51.488;5.462;2022-12-07T01:47:01;101601.13;;;7.87
75431;BMP280;64127;51.488;5.462;2022-12-07T01:49:48;101612.84;;;7.93
75431;BMP280;64127;51.488;5.462;2022-12-07T01:52:26;101607.72;;;7.95
75431;BMP280;64127;51.488;5.462;2022-12-07T01:55:06;101610.31;;;7.95
75431;BMP280;64127;51.488;5.462;2022-12-07T01:57:48;101612.56;;;7.89
75431;BMP280;64127;51.488;5.462;2022-12-07T02:00:20;101602.03;;;7.87
75431;BMP280;64127;51.488;5.462;2022-12-07T02:02:57;101599.50;;;7.89
75431;BMP280;64127;51.488;5.462;2022-12-07T02:05:33;101603.53;;;7.97
75431;BMP280;64127;51.488;5.462;2022-12-07T02:08:07;101586.94;;;7.96
75431;BMP280;64127;51.488;5.462;2022-12-07T02:10:40;101590.75;;;8.01
75431;BMP280;64127;51.488;5.462;2022-12-07T02:13:33;101580.94;;;7.97
75431;BMP280;64127;51.488;5.462;2022-12-07T02:22:34;101588.25;;;8.03
75431;BMP280;64127;51.488;5.462;2022-12-07T02:30:48;101592.38;;;7.99
75431;BMP280;64127;51.488;5.462;2022-12-07T02:33:33;101568.72;;;7.83
75431;BMP280;64127;51.488;5.462;2022-12-07T02:36:15;101594.91;;;7.98
75431;BMP280;64127;51.488;5.462;2022-12-07T02:39:15;101588.78;;;7.97
75431;BMP280;64127;51.488;5.462;2022-12-07T02:41:55;101590.28;;;7.94
75431;BMP280;64127;51.488;5.462;2022-12-07T02:44:31;101586.75;;;7.93
75431;BMP280;64127;51.488;5.462;2022-12-07T02:47:09;101589.25;;;7.92
75431;BMP280;64127;51.488;5.462;2022-12-07T02:49:43;101585.84;;;7.93
75431;BMP280;64127;51.488;5.462;2022-12-07T02:52:15;101582.25;;;7.91
75431;BMP280;64127;51.488;5.462;2022-12-07T02:54:47;101582.44;;;7.94
75431;BMP280;64127;51.488;5.462;2022-12-07T03:00:16;101586.94;;;7.96
75431;BMP280;64127;51.488;5.462;2022-12-07T03:03:10;101586.66;;;7.92
75431;BMP280;64127;51.488;5.462;2022-12-07T03:06:14;101589.25;;;7.92
75431;BMP280;64127;51.488;5.462;2022-12-07T03:09:20;101593.56;;;7.91
75431;BMP280;64127;51.488;5.462;2022-12-07T03:12:13;101596.28;;;7.93
75431;BMP280;64127;51.488;5.462;2022-12-07T03:14:57;101587.66;;;7.94
75431;BMP280;64127;51.488;5.462;2022-12-07T03:17:37;101589.38;;;7.93
75431;BMP280;64127;51.488;5.462;2022-12-07T03:20:13;101589.25;;;7.92
75431;BMP280;64127;51.488;5.462;2022-12-07T03:22:47;101588.47;;;7.93
75431;BMP280;64127;51.488;5.462;2022-12-07T03:25:21;101584.75;;;7.89
75431;BMP280;64127;51.488;5.462;2022-12-07T03:27:59;101584.88;;;7.91
75431;BMP280;64127;51.488;5.462;2022-12-07T03:30:49;101583.66;;;7.86
75431;BMP280;64127;51.488;5.462;2022-12-07T03:33:40;101575.34;;;7.78
75431;BMP280;64127;51.488;5.462;2022-12-07T03:36:45;101587.88;;;7.71
75431;BMP280;64127;51.488;5.462;2022-12-07T03:39:29;101579.06;;;7.69
75431;BMP280;64127;51.488;5.462;2022-12-07T03:42:05;101574.84;;;7.71
75431;BMP280;64127;51.488;5.462;2022-12-07T03:44:38;101580.38;;;7.75
75431;BMP280;64127;51.488;5.462;2022-12-07T03:47:32;101579.38;;;7.73
75431;BMP280;64127;51.488;5.462;2022-12-07T03:53:34;101577.44;;;7.71
75431;BMP280;64127;51.488;5.462;2022-12-07T03:56:09;101580.16;;;7.72
75431;BMP280;64127;51.488;5.462;2022-12-07T03:58:43;101591.50;;;7.73
75431;BMP280;64127;51.488;5.462;2022-12-07T04:01:17;101584.28;;;7.69
75431;BMP280;64127;51.488;5.462;2022-12-07T04:03:49;101577.06;;;7.64
75431;BMP280;64127;51.488;5.462;2022-12-07T04:06:21;101559.63;;;7.63
75431;BMP280;64127;51.488;5.462;2022-12-07T04:08:53;101534.19;;;7.46
75431;BMP280;64127;51.488;5.462;2022-12-07T04:11:25;101574.84;;;7.71
75431;BMP280;64127;51.488;5.462;2022-12-07T04:13:57;101538.94;;;7.53
75431;BMP280;64127;51.488;5.462;2022-12-07T04:16:56;101573.84;;;7.69
75431;BMP280;64127;51.488;5.462;2022-12-07T04:19:32;101584.09;;;7.65
75431;BMP280;64127;51.488;5.462;2022-12-07T04:22:05;101573.66;;;7.65
75431;BMP280;64127;51.488;5.462;2022-12-07T04:24:38;101580.69;;;7.67
75431;BMP280;64127;51.488;5.462;2022-12-07T04:27:10;101577.25;;;7.68
75431;BMP280;64127;51.488;5.462;2022-12-07T04:29:43;101585.19;;;7.69
75431;BMP280;64127;51.488;5.462;2022-12-07T04:32:15;101576.47;;;7.69
75431;BMP280;64127;51.488;5.462;2022-12-07T04:34:47;101575.66;;;7.70
75431;BMP280;64127;51.488;5.462;2022-12-07T04:37:25;101573.13;;;7.71
75431;BMP280;64127;51.488;5.462;2022-12-07T04:39:57;101561.13;;;7.73
75431;BMP280;64127;51.488;5.462;2022-12-07T04:42:30;101550.88;;;7.76
75431;BMP280;64127;51.488;5.462;2022-12-07T04:45:02;101549.16;;;7.77
75431;BMP280;64127;51.488;5.462;2022-12-07T04:47:35;101562.59;;;7.83
75431;BMP280;64127;51.488;5.462;2022-12-07T04:50:09;101563.38;;;7.82
75431;BMP280;64127;51.488;5.462;2022-12-07T04:52:41;101565.22;;;7.83
75431;BMP280;64127;51.488;5.462;2022-12-07T04:55:13;101560.97;;;7.85
75431;BMP280;64127;51.488;5.462;2022-12-07T04:57:45;101566.31;;;7.86
75431;BMP280;64127;51.488;5.462;2022-12-07T05:00:17;101564.00;;;7.91
75431;BMP280;64127;51.488;5.462;2022-12-07T05:02:49;101562.19;;;7.90
75431;BMP280;64127;51.488;5.462;2022-12-07T05:05:21;101555.56;;;7.82
75431;BMP280;64127;51.488;5.462;2022-12-07T05:07:53;101560.97;;;7.85
75431;BMP280;64127;51.488;5.462;2022-12-07T05:10:25;101560.00;;;7.83
75431;BMP280;64127;51.488;5.462;2022-12-07T05:12:57;101556.47;;;7.82
75431;BMP280;64127;51.488;5.462;2022-12-07T05:15:29;101558.19;;;7.82
75431;BMP280;64127;51.488;5.462;2022-12-07T05:18:01;101517.91;;;7.63
75431;BMP280;64127;51.488;5.462;2022-12-07T05:20:34;101556.28;;;7.79
75431;BMP280;64127;51.488;5.462;2022-12-07T05:23:13;101541.16;;;7.74
75431;BMP280;64127;51.488;5.462;2022-12-07T05:25:46;101553.34;;;7.88
75431;BMP280;64127;51.488;5.462;2022-12-07T05:28:18;101550.84;;;7.89
75431;BMP280;64127;51.488;5.462;2022-12-07T05:30:50;101556.06;;;7.89
75431;BMP280;64127;51.488;5.462;2022-12-07T05:33:29;101561.38;;;7.91
75431;BMP280;64127;51.488;5.462;2022-12-07T05:36:01;101554.34;;;7.90
75431;BMP280;64127;51.488;5.462;2022-12-07T05:38:37;101560.56;;;7.92
75431;BMP280;64127;51.488;5.462;2022-12-07T05:41:14;101564.00;;;7.91
75431;BMP280;64127;51.488;5.462;2022-12-07T05:44:05;101545.72;;;7.91
75431;BMP280;64127;51.488;5.462;2022-12-07T05:46:37;101545.72;;;7.91
75431;BMP280;64127;51.488;5.462;2022-12-07T05:49:09;101549.13;;;7.90
75431;BMP280;64127;51.488;5.462;2022-12-07T05:51:41;101544.91;;;7.92
75431;BMP280;64127;51.488;5.462;2022-12-07T05:54:13;101543.50;;;7.97
75431;BMP280;64127;51.488;5.462;2022-12-07T05:56:45;101541.88;;;7.99
75431;BMP280;64127;51.488;5.462;2022-12-07T05:59:17;101548.28;;;8.04
75431;BMP280;64127;51.488;5.462;2022-12-07T06:02:14;101539.44;;;8.02
75431;BMP280;64127;51.488;5.462;2022-12-07T06:04:47;101535.94;;;8.01
75431;BMP280;64127;51.488;5.462;2022-12-07T06:07:19;101540.34;;;8.02
75431;BMP280;64127;51.488;5.462;2022-12-07T06:09:51;101541.06;;;8.00
75431;BMP280;64127;51.488;5.462;2022-12-07T06:12:24;101544.66;;;8.02
75431;BMP280;64127;51.488;5.462;2022-12-07T06:15:10;101548.72;;;7.97
75431;BMP280;64127;51.488;5.462;2022-12-07T06:17:44;101531.09;;;7.80
75431;BMP280;64127;51.488;5.462;2022-12-07T06:20:16;101550.72;;;7.88
75431;BMP280;64127;51.488;5.462;2022-12-07T06:22:48;101555.75;;;7.85
75431;BMP280;64127;51.488;5.462;2022-12-07T06:25:20;101525.72;;;7.63
75431;BMP280;64127;51.488;5.462;2022-12-07T06:27:52;101536.34;;;7.67
75431;BMP280;64127;51.488;5.462;2022-12-07T06:30:26;101549.78;;;7.73
75431;BMP280;64127;51.488;5.462;2022-12-07T06:32:58;101531.34;;;7.56
75431;BMP280;64127;51.488;5.462;2022-12-07T06:35:33;101547.56;;;7.65
75431;BMP280;64127;51.488;5.462;2022-12-07T06:38:05;101554.59;;;7.67
75431;BMP280;64127;51.488;5.462;2022-12-07T06:40:37;101558.00;;;7.65
75431;BMP280;64127;51.488;5.462;2022-12-07T06:43:09;101551.69;;;7.62
75431;BMP280;64127;51.488;5.462;2022-12-07T06:45:42;101561.59;;;7.68
75431;BMP280;64127;51.488;5.462;2022-12-07T06:48:14;101561.59;;;7.68
75431;BMP280;64127;51.488;5.462;2022-12-07T06:50:47;101553.69;;;7.66
75431;BMP280;64127;51.488;5.462;2022-12-07T06:53:25;101557.69;;;7.61
75431;BMP280;64127;51.488;5.462;2022-12-07T06:55:57;101556.53;;;7.56
75431;BMP280;64127;51.488;5.462;2022-12-07T06:58:29;101552.50;;;7.48
75431;BMP280;64127;51.488;5.462;2022-12-07T07:01:02;101557.22;;;7.40
75431;BMP280;64127;51.488;5.462;2022-12-07T07:03:34;101553.50;;;7.37
75431;BMP280;64127;51.488;5.462;2022-12-07T07:06:07;101552.41;;;7.33
75431;BMP280;64127;51.488;5.462;2022-12-07T07:08:40;101555.84;;;7.32
75431;BMP280;64127;51.488;5.462;2022-12-07T07:11:12;101525.25;;;7.17
75431;BMP280;64127;51.488;5.462;2022-12-07T07:13:45;101554.72;;;7.29
75431;BMP280;64127;51.488;5.462;2022-12-07T07:16:17;101558.25;;;7.29
75431;BMP280;64127;51.488;5.462;2022-12-07T07:18:49;101555.53;;;7.28
75431;BMP280;64127;51.488;5.462;2022-12-07T07:21:21;101560.63;;;7.26
75431;BMP280;64127;51.488;5.462;2022-12-07T07:23:53;101566.66;;;7.25
75431;BMP280;64127;51.488;5.462;2022-12-07T07:26:25;101569.94;;;7.23
75431;BMP280;64127;51.488;5.462;2022-12-07T07:28:57;101552.31;;;7.19
75431;BMP280;64127;51.488;5.462;2022-12-07T07:31:29;101561.53;;;7.27
75431;BMP280;64127;51.488;5.462;2022-12-07T07:34:01;101560.22;;;7.33
75431;BMP280;64127;51.488;5.462;2022-12-07T07:36:33;101536.69;;;7.19
75431;BMP280;64127;51.488;5.462;2022-12-07T07:39:05;101565.66;;;7.36
75431;BMP280;64127;51.488;5.462;2022-12-07T07:41:37;101564.34;;;7.43
75431;BMP280;64127;51.488;5.462;2022-12-07T07:44:09;101573.28;;;7.46
75431;BMP280;64127;51.488;5.462;2022-12-07T07:46:41;101565.47;;;7.46
75431;BMP280;64127;51.488;5.462;2022-12-07T07:49:13;101573.28;;;7.46
75431;BMP280;64127;51.488;5.462;2022-12-07T07:51:45;101572.47;;;7.47
75431;BMP280;64127;51.488;5.462;2022-12-07T07:54:17;101567.16;;;7.46
75431;BMP280;64127;51.488;5.462;2022-12-07T07:56:49;101572.47;;;7.47
75431;BMP280;64127;51.488;5.462;2022-12-07T07:59:21;101570.69;;;7.46
75431;BMP280;64127;51.488;5.462;2022-12-07T08:01:53;101577.47;;;7.44
75431;BMP280;64127;51.488;5.462;2022-12-07T08:04:25;101574.88;;;7.44
75431;BMP280;64127;51.488;5.462;2022-12-07T08:06:57;101571.34;;;7.44
75431;BMP280;64127;51.488;5.462;2022-12-07T08:09:29;101572.25;;;7.44
75431;BMP280;64127;51.488;5.462;2022-12-07T08:12:02;101575.78;;;7.45
75431;BMP280;64127;51.488;5.462;2022-12-07T08:14:34;101576.69;;;7.45
75431;BMP280;64127;51.488;5.462;2022-12-07T08:17:06;101582.50;;;7.41
75431;BMP280;64127;51.488;5.462;2022-12-07T08:19:38;101575.06;;;7.34
75431;BMP280;64127;51.488;5.462;2022-12-07T08:22:10;101577.38;;;7.30
75431;BMP280;64127;51.488;5.462;2022-12-07T08:24:42;101588.91;;;7.33
75431;BMP280;64127;51.488;5.462;2022-12-07T08:27:14;101585.28;;;7.31
75431;BMP280;64127;51.488;5.462;2022-12-07T08:29:46;101588.91;;;7.33
75431;BMP280;64127;51.488;5.462;2022-12-07T08:32:18;101579.88;;;7.28
75431;BMP280;64127;51.488;5.462;2022-12-07T08:34:52;101588.41;;;7.26
75431;BMP280;64127;51.488;5.462;2022-12-07T08:37:24;101600.22;;;7.34
75431;BMP280;64127;51.488;5.462;2022-12-07T08:39:56;101601.13;;;7.34
75431;BMP280;64127;51.488;5.462;2022-12-07T08:42:28;101607.97;;;7.45
75431;BMP280;64127;51.488;5.462;2022-12-07T08:45:01;101593.91;;;7.43
75431;BMP280;64127;51.488;5.462;2022-12-07T08:47:37;101600.53;;;7.51
75431;BMP280;64127;51.488;5.462;2022-12-07T08:50:11;101594.81;;;7.57
75431;BMP280;64127;51.488;5.462;2022-12-07T08:52:44;101599.16;;;7.56
75431;BMP280;64127;51.488;5.462;2022-12-07T08:55:16;101566.66;;;7.38
75431;BMP280;64127;51.488;5.462;2022-12-07T08:57:48;101592.31;;;7.58
75431;BMP280;64127;51.488;5.462;2022-12-07T09:00:20;101591.41;;;7.58
75431;BMP280;64127;51.488;5.462;2022-12-07T09:02:54;101584.31;;;7.55
75431;BMP280;64127;51.488;5.462;2022-12-07T09:05:26;101587.28;;;7.61
75431;BMP280;64127;51.488;5.462;2022-12-07T09:08:01;101590.69;;;7.60
75431;BMP280;64127;51.488;5.462;2022-12-07T09:10:33;101581.28;;;7.62
75431;BMP280;64127;51.488;5.462;2022-12-07T09:13:05;101585.72;;;7.63
75431;BMP280;64127;51.488;5.462;2022-12-07T09:15:37;101586.50;;;7.62
75431;BMP280;64127;51.488;5.462;2022-12-07T09:18:09;101587.50;;;7.64
75431;BMP280;64127;51.488;5.462;2022-12-07T09:20:41;101592.91;;;7.68
75431;BMP280;64127;51.488;5.462;2022-12-07T09:23:13;101590.50;;;7.71
75431;BMP280;64127;51.488;5.462;2022-12-07T09:25:45;101582.88;;;7.74
75431;BMP280;64127;51.488;5.462;2022-12-07T09:28:17;101581.47;;;7.79
75431;BMP280;64127;51.488;5.462;2022-12-07T09:30:49;101585.09;;;7.81
75431;BMP280;64127;51.488;5.462;2022-12-07T09:33:41;101579.16;;;7.83
75431;BMP280;64127;51.488;5.462;2022-12-07T09:36:13;101578.13;;;7.81
75431;BMP280;64127;51.488;5.462;2022-12-07T09:38:45;101582.56;;;7.82
75431;BMP280;64127;51.488;5.462;2022-12-07T09:41:18;101587.97;;;7.85
75431;BMP280;64127;51.488;5.462;2022-12-07T09:43:52;101594.09;;;7.86
75431;BMP280;64127;51.488;5.462;2022-12-07T09:46:24;101585.28;;;7.84
75431;BMP280;64127;51.488;5.462;2022-12-07T09:48:57;101573.56;;;7.77
75431;BMP280;64127;51.488;5.462;2022-12-07T09:51:29;101596.09;;;7.90
75431;BMP280;64127;51.488;5.462;2022-12-07T09:54:02;101589.75;;;7.99
75431;BMP280;64127;51.488;5.462;2022-12-07T09:56:34;101589.41;;;8.21
75431;BMP280;64127;51.488;5.462;2022-12-07T09:59:06;101579.13;;;8.37
75431;BMP280;64127;51.488;5.462;2022-12-07T10:01:42;101578.97;;;8.77
75431;BMP280;64127;51.488;5.462;2022-12-07T10:04:21;101571.03;;;9.19
75431;BMP280;64127;51.488;5.462;2022-12-07T10:06:54;101580.34;;;9.59
75431;BMP280;64127;51.488;5.462;2022-12-07T10:09:25;101579.44;;;9.59
75431;BMP280;64127;51.488;5.462;2022-12-07T10:12:10;101561.69;;;9.53
75431;BMP280;64127;51.488;5.462;2022-12-07T10:15:09;101570.81;;;9.45
75431;BMP280;64127;51.488;5.462;2022-12-07T10:17:49;101543.06;;;9.18
75431;BMP280;64127;51.488;5.462;2022-12-07T10:20:26;101562.00;;;9.29
75431;BMP280;64127;51.488;5.462;2022-12-07T10:23:08;101562.91;;;9.29
75431;BMP280;64127;51.488;5.462;2022-12-07T10:25:45;101556.63;;;9.56
75431;BMP280;64127;51.488;5.462;2022-12-07T10:28:19;101553.56;;;9.80
75431;BMP280;64127;51.488;5.462;2022-12-07T10:31:00;101545.13;;;10.00
75431;BMP280;64127;51.488;5.462;2022-12-07T10:34:31;101543.88;;;9.93
75431;BMP280;64127;51.488;5.462;2022-12-07T10:37:18;101533.97;;;9.88
75431;BMP280;64127;51.488;5.462;2022-12-07T10:39:56;101539.38;;;9.91
75431;BMP280;64127;51.488;5.462;2022-12-07T10:42:31;101535.13;;;9.93
75431;BMP280;64127;51.488;5.462;2022-12-07T10:51:09;101526.66;;;10.29
75431;BMP280;64127;51.488;5.462;2022-12-07T10:54:21;101524.16;;;10.81
75431;BMP280;64127;51.488;5.462;2022-12-07T11:00:24;101504.53;;;11.79
75431;BMP280;64127;51.488;5.462;2022-12-07T11:06:12;101501.94;;;11.98
75431;BMP280;64127;51.488;5.462;2022-12-07T11:18:56;101491.81;;;10.98
75431;BMP280;64127;51.488;5.462;2022-12-07T11:24:49;101494.59;;;10.67
75431;BMP280;64127;51.488;5.462;2022-12-07T11:34:55;101489.09;;;9.96
75431;BMP280;64127;51.488;5.462;2022-12-07T11:45:27;101479.75;;;9.85
75431;BMP280;64127;51.488;5.462;2022-12-07T11:48:22;101448.38;;;9.71
75431;BMP280;64127;51.488;5.462;2022-12-07T11:51:02;101477.88;;;9.83
75431;BMP280;64127;51.488;5.462;2022-12-07T11:53:57;101452.97;;;9.58
75431;BMP280;64127;51.488;5.462;2022-12-07T11:56:35;101472.59;;;9.66
75431;BMP280;64127;51.488;5.462;2022-12-07T11:59:25;101483.06;;;9.66
75431;BMP280;64127;51.488;5.462;2022-12-07T12:02:28;101479.03;;;9.57
75431;BMP280;64127;51.488;5.462;2022-12-07T12:05:16;101454.56;;;9.40
75431;BMP280;64127;51.488;5.462;2022-12-07T12:21:15;101441.38;;;9.39
75431;BMP280;64127;51.488;5.462;2022-12-07T12:24:15;101448.06;;;9.48
75431;BMP280;64127;51.488;5.462;2022-12-07T12:27:20;101450.75;;;9.66
75431;BMP280;64127;51.488;5.462;2022-12-07T12:30:01;101440.38;;;9.84
75431;BMP280;64127;51.488;5.462;2022-12-07T12:32:40;101443.50;;;10.09
75431;BMP280;64127;51.488;5.462;2022-12-07T12:35:37;101433.34;;;10.65
75431;BMP280;64127;51.488;5.462;2022-12-07T12:38:34;101423.47;;;10.95
75431;BMP280;64127;51.488;5.462;2022-12-07T12:50:37;101412.44;;;11.56
75431;BMP280;64127;51.488;5.462;2022-12-07T12:53:25;101385.91;;;11.50
75431;BMP280;64127;51.488;5.462;2022-12-07T12:56:51;101406.03;;;11.32
75431;BMP280;64127;51.488;5.462;2022-12-07T12:59:38;101397.16;;;11.11
75431;BMP280;64127;51.488;5.462;2022-12-07T13:02:28;101374.69;;;10.81
75431;BMP280;64127;51.488;5.462;2022-12-07T13:05:31;101403.53;;;10.81
75431;BMP280;64127;51.488;5.462;2022-12-07T13:08:25;101383.75;;;10.69
75431;BMP280;64127;51.488;5.462;2022-12-07T13:11:41;101353.78;;;10.29
75431;BMP280;64127;51.488;5.462;2022-12-07T13:20:07;101314.28;;;9.75
75431;BMP280;64127;51.488;5.462;2022-12-07T13:22:49;101319.19;;;9.68
75431;BMP280;64127;51.488;5.462;2022-12-07T13:25:41;101367.75;;;9.96
75431;BMP280;64127;51.488;5.462;2022-12-07T13:28:18;101381.78;;;10.14
75431;BMP280;64127;51.488;5.462;2022-12-07T13:31:12;101375.47;;;10.10
75431;BMP280;64127;51.488;5.462;2022-12-07T13:33:48;101304.06;;;9.63
75431;BMP280;64127;51.488;5.462;2022-12-07T13:39:20;101359.22;;;10.00
75431;BMP280;64127;51.488;5.462;2022-12-07T13:41:58;101351.25;;;10.31
75431;BMP280;64127;51.488;5.462;2022-12-07T13:44:40;101356.19;;;10.42
75431;BMP280;64127;51.488;5.462;2022-12-07T13:47:19;101341.66;;;10.31
75431;BMP280;64127;51.488;5.462;2022-12-07T13:49:56;101341.94;;;10.20
75431;BMP280;64127;51.488;5.462;2022-12-07T13:52:31;101362.00;;;10.19
75431;BMP280;64127;51.488;5.462;2022-12-07T13:57:39;101201.28;;;9.15
75431;BMP280;64127;51.488;5.462;2022-12-07T14:00:23;101264.13;;;9.33
75431;BMP280;64127;51.488;5.462;2022-12-07T14:05:46;101346.44;;;9.72
75431;BMP280;64127;51.488;5.462;2022-12-07T14:08:34;101300.56;;;9.46
75431;BMP280;64127;51.488;5.462;2022-12-07T14:11:20;101280.88;;;9.37
75431;BMP280;64127;51.488;5.462;2022-12-07T14:14:02;101337.72;;;9.73
75431;BMP280;64127;51.488;5.462;2022-12-07T14:16:36;101326.19;;;9.69
75431;BMP280;64127;51.488;5.462;2022-12-07T14:22:37;101311.84;;;9.45
75431;BMP280;64127;51.488;5.462;2022-12-07T14:28:03;101314.44;;;9.45
75431;BMP280;64127;51.488;5.462;2022-12-07T14:30:36;101255.28;;;9.15
75431;BMP280;64127;51.488;5.462;2022-12-07T14:33:08;101327.22;;;9.55
75431;BMP280;64127;51.488;5.462;2022-12-07T14:35:41;101264.13;;;9.17
75431;BMP280;64127;51.488;5.462;2022-12-07T14:38:13;101312.84;;;9.47
75431;BMP280;64127;51.488;5.462;2022-12-07T14:40:52;101215.78;;;8.93
75431;BMP280;64127;51.488;5.462;2022-12-07T14:43:25;101322.00;;;9.55
75431;BMP280;64127;51.488;5.462;2022-12-07T14:45:57;101286.00;;;9.35
75431;BMP280;64127;51.488;5.462;2022-12-07T14:48:34;101221.00;;;8.93
75431;BMP280;64127;51.488;5.462;2022-12-07T14:51:35;101292.56;;;9.27
75431;BMP280;64127;51.488;5.462;2022-12-07T14:54:31;101303.34;;;9.33
75431;BMP280;64127;51.488;5.462;2022-12-07T14:57:04;101309.97;;;9.43
75431;BMP280;64127;51.488;5.462;2022-12-07T14:59:37;101281.03;;;9.24
75431;BMP280;64127;51.488;5.462;2022-12-07T15:02:16;101289.13;;;9.28
75431;BMP280;64127;51.488;5.462;2022-12-07T15:04:48;101212.44;;;8.79
75431;BMP280;64127;51.488;5.462;2022-12-07T15:07:21;101318.56;;;9.40
75431;BMP280;64127;51.488;5.462;2022-12-07T15:09:54;101302.38;;;9.31
75431;BMP280;64127;51.488;5.462;2022-12-07T15:12:26;101230.44;;;8.91
75431;BMP280;64127;51.488;5.462;2022-12-07T15:15:00;101307.13;;;9.38
75431;BMP280;64127;51.488;5.462;2022-12-07T15:17:34;101252.84;;;9.02
75431;BMP280;64127;51.488;5.462;2022-12-07T15:20:12;101287.81;;;9.20
75431;BMP280;64127;51.488;5.462;2022-12-07T15:22:44;101301.38;;;9.29
75431;BMP280;64127;51.488;5.462;2022-12-07T15:25:19;101303.50;;;9.52
75431;BMP280;64127;51.488;5.462;2022-12-07T15:27:51;101250.22;;;9.02
75431;BMP280;64127;51.488;5.462;2022-12-07T15:30:23;101284.16;;;9.16
75431;BMP280;64127;51.488;5.462;2022-12-07T15:32:56;101307.94;;;9.21
75431;BMP280;64127;51.488;5.462;2022-12-07T15:35:28;101304.16;;;9.16
75431;BMP280;64127;51.488;5.462;2022-12-07T15:38:01;101299.84;;;9.16
75431;BMP280;64127;51.488;5.462;2022-12-07T15:40:41;101168.63;;;8.43
75431;BMP280;64127;51.488;5.462;2022-12-07T15:43:13;101293.38;;;9.10
75431;BMP280;64127;51.488;5.462;2022-12-07T15:46:04;101309.13;;;9.11
75431;BMP280;64127;51.488;5.462;2022-12-07T15:48:37;101167.22;;;8.33
75431;BMP280;64127;51.488;5.462;2022-12-07T15:51:09;101303.59;;;9.54
75431;BMP280;64127;51.488;5.462;2022-12-07T15:53:44;101152.09;;;8.42
75431;BMP280;64127;51.488;5.462;2022-12-07T15:56:17;101234.38;;;8.83
75431;BMP280;64127;51.488;5.462;2022-12-07T15:58:51;101290.13;;;9.14
75431;BMP280;64127;51.488;5.462;2022-12-07T16:01:24;101174.53;;;8.55
75431;BMP280;64127;51.488;5.462;2022-12-07T16:03:57;101287.72;;;9.18
75431;BMP280;64127;51.488;5.462;2022-12-07T16:06:33;101144.88;;;8.38
75431;BMP280;64127;51.488;5.462;2022-12-07T16:09:06;101226.22;;;8.77
75431;BMP280;64127;51.488;5.462;2022-12-07T16:11:39;101137.16;;;8.25
75431;BMP280;64127;51.488;5.462;2022-12-07T16:14:15;101178.25;;;8.44
75431;BMP280;64127;51.488;5.462;2022-12-07T16:16:52;101284.53;;;9.08
75431;BMP280;64127;51.488;5.462;2022-12-07T16:19:24;101171.31;;;8.44
75431;BMP280;64127;51.488;5.462;2022-12-07T16:22:04;101282.09;;;9.11
75431;BMP280;64127;51.488;5.462;2022-12-07T16:24:37;101221.00;;;8.77
75431;BMP280;64127;51.488;5.462;2022-12-07T16:27:09;101217.22;;;8.72
75431;BMP280;64127;51.488;5.462;2022-12-07T16:29:42;101159.81;;;8.41
75431;BMP280;64127;51.488;5.462;2022-12-07T16:32:16;101119.38;;;8.18
75431;BMP280;64127;51.488;5.462;2022-12-07T16:34:51;101271.94;;;9.01
75431;BMP280;64127;51.488;5.462;2022-12-07T16:37:23;101277.19;;;9.01
75431;BMP280;64127;51.488;5.462;2022-12-07T16:39:58;101265.84;;;9.00
75431;BMP280;64127;51.488;5.462;2022-12-07T16:42:34;101271.88;;;8.99
75431;BMP280;64127;51.488;5.462;2022-12-07T16:45:07;101227.19;;;8.79
75431;BMP280;64127;51.488;5.462;2022-12-07T16:47:40;101153.19;;;8.31
75431;BMP280;64127;51.488;5.462;2022-12-07T16:50:13;101100.34;;;8.04
75431;BMP280;64127;51.488;5.462;2022-12-07T16:52:45;101205.13;;;8.57
75431;BMP280;64127;51.488;5.462;2022-12-07T16:55:17;101259.34;;;8.94
75431;BMP280;64127;51.488;5.462;2022-12-07T16:57:49;101129.97;;;8.21
75431;BMP280;64127;51.488;5.462;2022-12-07T17:00:21;101153.53;;;8.37
75431;BMP280;64127;51.488;5.462;2022-12-07T17:02:53;101153.19;;;8.31
75431;BMP280;64127;51.488;5.462;2022-12-07T17:05:27;101181.44;;;8.38
75431;BMP280;64127;51.488;5.462;2022-12-07T17:08:02;101236.16;;;8.68
75431;BMP280;64127;51.488;5.462;2022-12-07T17:10:38;101214.50;;;8.54
75431;BMP280;64127;51.488;5.462;2022-12-07T17:13:13;101196.53;;;8.44